Time;durP1;ratioP1;P1;durP2;ratioP2;P2;SDS_P1;SDS_P2;PMS_P1;PMS_P2;Temp;Humidity;BMP_temperature;BMP_pressure;BME280_temperature;BME280_humidity;BME280_pressure;Samples;Min_cycle;Max_cycle;Signal;HPM_P1;HPM_P2
2022/07/10 00:00:32;;;;;;;12.77;1.38;;;13.70;99.90;;;;;;5072460;28;20093;-77
2022/07/10 00:03:02;;;;;;;9.95;1.70;;;13.50;99.90;;;;;;5072395;28;20048;-76
2022/07/10 00:05:28;;;;;;;12.00;1.70;;;13.40;99.90;;;;;;5070524;28;20056;-77
2022/07/10 00:07:54;;;;;;;9.52;1.00;;;13.40;99.90;;;;;;5071858;28;20044;-76
2022/07/10 00:10:21;;;;;;;7.28;1.20;;;13.40;99.90;;;;;;5072662;28;20053;-76
2022/07/10 00:12:48;;;;;;;12.43;2.28;;;13.30;99.90;;;;;;5072547;28;20054;-76
2022/07/10 00:15:15;;;;;;;10.25;1.63;;;13.40;99.90;;;;;;5072307;28;20377;-76
2022/07/10 00:17:41;;;;;;;10.48;1.35;;;13.30;99.90;;;;;;5071894;28;20053;-77
2022/07/10 00:20:07;;;;;;;9.68;1.50;;;13.40;99.90;;;;;;5071921;28;20139;-77
2022/07/10 00:22:34;;;;;;;12.30;1.35;;;13.30;99.90;;;;;;5071987;28;20048;-77
2022/07/10 00:25:04;;;;;;;14.82;1.98;;;13.30;99.90;;;;;;5070667;28;20048;-78
2022/07/10 00:27:30;;;;;;;8.20;1.40;;;13.30;99.90;;;;;;5070640;28;20048;-77
2022/07/10 00:29:56;;;;;;;11.82;1.20;;;13.80;99.90;;;;;;5071848;28;20083;-77
2022/07/10 00:32:22;;;;;;;12.55;1.42;;;13.60;99.90;;;;;;5071853;28;20072;-77
2022/07/10 00:34:48;;;;;;;10.57;1.40;;;13.40;99.90;;;;;;5071978;28;20052;-76
2022/07/10 00:37:13;;;;;;;13.32;1.45;;;13.40;99.90;;;;;;5071064;28;20102;-76
2022/07/10 00:39:39;;;;;;;12.63;1.38;;;13.30;99.90;;;;;;5071698;28;20071;-76
2022/07/10 00:42:07;;;;;;;9.52;1.40;;;13.20;99.90;;;;;;5071814;28;20040;-76
2022/07/10 00:44:33;;;;;;;10.98;1.73;;;13.30;99.90;;;;;;5071262;28;20057;-76
2022/07/10 00:46:59;;;;;;;8.75;1.45;;;13.30;99.90;;;;;;5071399;28;20044;-76
2022/07/10 00:49:25;;;;;;;12.15;1.77;;;13.30;99.90;;;;;;5071488;28;20086;-77
2022/07/10 00:51:51;;;;;;;13.05;2.45;;;13.40;99.90;;;;;;5071568;28;20056;-76
2022/07/10 00:54:17;;;;;;;14.52;2.17;;;13.30;99.90;;;;;;5072099;28;20086;-75
2022/07/10 00:56:43;;;;;;;15.07;1.55;;;13.40;99.90;;;;;;5070295;28;20060;-76
2022/07/10 00:59:10;;;;;;;7.03;1.15;;;13.40;99.90;;;;;;5071243;28;20052;-77
2022/07/10 01:01:36;;;;;;;10.35;1.75;;;13.30;99.90;;;;;;5071188;28;20041;-77
2022/07/10 01:04:02;;;;;;;11.45;1.38;;;13.30;99.90;;;;;;5071163;28;20040;-77
2022/07/10 01:06:28;;;;;;;11.02;1.15;;;13.30;99.90;;;;;;5069879;28;20049;-77
2022/07/10 01:08:54;;;;;;;9.38;1.85;;;13.30;99.90;;;;;;5070693;28;20063;-78
2022/07/10 01:11:21;;;;;;;14.25;1.92;;;13.30;99.90;;;;;;5071486;28;20048;-76
2022/07/10 01:13:46;;;;;;;12.52;1.70;;;13.30;99.90;;;;;;5070874;28;20040;-75
2022/07/10 01:16:13;;;;;;;13.95;1.50;;;13.30;99.90;;;;;;5071009;28;20055;-77
2022/07/10 01:18:39;;;;;;;12.77;1.73;;;13.30;99.90;;;;;;5070508;28;20041;-75
2022/07/10 01:21:05;;;;;;;10.75;1.67;;;13.20;99.90;;;;;;5070440;28;20044;-77
2022/07/10 01:23:31;;;;;;;11.05;1.45;;;13.20;99.90;;;;;;5070536;28;20055;-77
2022/07/10 01:25:57;;;;;;;12.38;1.50;;;13.10;99.90;;;;;;5070712;28;20052;-76
2022/07/10 01:28:23;;;;;;;15.60;1.58;;;13.30;99.90;;;;;;5070964;28;20157;-77
2022/07/10 01:30:49;;;;;;;10.48;1.30;;;13.50;99.90;;;;;;5070757;28;20056;-77
2022/07/10 01:33:15;;;;;;;7.82;1.27;;;13.30;99.90;;;;;;5070737;28;20051;-76
2022/07/10 01:35:41;;;;;;;9.98;1.60;;;13.00;99.90;;;;;;5070688;28;20036;-76
2022/07/10 01:38:07;;;;;;;13.73;2.20;;;12.90;99.90;;;;;;5070855;28;20122;-77
2022/07/10 01:40:33;;;;;;;11.25;1.30;;;12.90;99.90;;;;;;5070260;28;20484;-77
2022/07/10 01:42:58;;;;;;;9.07;1.05;;;12.80;99.90;;;;;;5069236;28;20483;-76
2022/07/10 01:45:25;;;;;;;7.93;1.38;;;12.80;99.90;;;;;;5068724;28;20068;-75
2022/07/10 01:47:50;;;;;;;12.38;1.55;;;12.70;99.90;;;;;;5069243;28;20055;-75
2022/07/10 01:50:16;;;;;;;8.45;1.27;;;12.70;99.90;;;;;;5069087;28;20045;-77
2022/07/10 01:52:42;;;;;;;10.15;1.23;;;12.70;99.90;;;;;;5068622;28;20379;-76
2022/07/10 01:55:08;;;;;;;8.18;1.75;;;12.60;99.90;;;;;;5068715;28;20110;-75
2022/07/10 01:57:34;;;;;;;8.63;1.30;;;12.60;99.90;;;;;;5069442;28;20037;-75
2022/07/10 02:00:00;;;;;;;7.70;1.10;;;12.80;99.90;;;;;;5069109;28;20515;-76
2022/07/10 02:02:26;;;;;;;8.10;1.42;;;12.50;99.90;;;;;;5068794;28;20044;-76
2022/07/10 02:04:52;;;;;;;8.15;0.88;;;12.50;99.90;;;;;;5070283;28;20049;-76
2022/07/10 02:07:21;;;;;;;5.68;1.20;;;12.40;99.90;;;;;;5070187;28;20044;-74
2022/07/10 02:09:47;;;;;;;6.13;1.83;;;12.40;99.90;;;;;;5072669;28;20438;-77
2022/07/10 02:12:14;;;;;;;11.50;0.90;;;12.40;99.90;;;;;;5069740;28;20127;-76
2022/07/10 02:14:41;;;;;;;4.78;1.15;;;12.40;99.90;;;;;;5070009;28;20256;-76
2022/07/10 02:17:07;;;;;;;6.85;1.08;;;12.80;99.90;;;;;;5069834;28;20063;-76
2022/07/10 02:19:34;;;;;;;5.10;0.95;;;12.30;99.90;;;;;;5102306;28;20067;-76
2022/07/10 02:22:00;;;;;;;5.47;0.80;;;12.20;99.90;;;;;;5069746;28;20041;-77
2022/07/10 02:24:26;;;;;;;11.77;1.10;;;12.20;99.90;;;;;;5069518;28;20102;-77
2022/07/10 02:26:55;;;;;;;7.63;1.00;;;12.20;99.90;;;;;;5069459;28;20041;-76
2022/07/10 02:29:23;;;;;;;7.53;0.98;;;12.20;99.90;;;;;;5069802;28;20131;-76
2022/07/10 02:31:48;;;;;;;6.63;1.10;;;12.20;99.90;;;;;;5070373;28;20060;-76
2022/07/10 02:34:14;;;;;;;10.15;1.05;;;12.10;99.90;;;;;;5069274;28;20098;-77
2022/07/10 02:36:40;;;;;;;11.07;1.10;;;12.10;99.90;;;;;;5069873;28;20511;-77
2022/07/10 02:39:07;;;;;;;5.70;0.80;;;12.10;99.90;;;;;;5070046;28;20076;-77
2022/07/10 02:41:32;;;;;;;8.85;0.82;;;12.20;99.90;;;;;;5069357;28;20055;-77
2022/07/10 02:43:58;;;;;;;8.77;1.00;;;12.10;99.90;;;;;;5069413;28;20048;-76
2022/07/10 02:46:25;;;;;;;9.85;1.20;;;12.20;99.90;;;;;;5068531;28;20056;-77
2022/07/10 02:48:51;;;;;;;6.60;0.93;;;12.20;99.90;;;;;;5052546;28;20048;-76
2022/07/10 02:51:17;;;;;;;7.25;1.17;;;12.20;99.90;;;;;;5069910;28;20540;-76
2022/07/10 02:53:43;;;;;;;11.90;0.93;;;12.30;99.90;;;;;;5069378;28;20105;-76
2022/07/10 02:56:09;;;;;;;10.95;1.35;;;12.30;99.90;;;;;;5070088;28;20044;-77
2022/07/10 02:58:34;;;;;;;8.23;0.90;;;12.20;99.90;;;;;;5069839;28;20388;-76
2022/07/10 03:01:00;;;;;;;11.60;1.60;;;12.20;99.90;;;;;;5069532;28;20453;-76
2022/07/10 03:03:26;;;;;;;4.53;0.95;;;12.20;99.90;;;;;;5069533;28;20048;-78
2022/07/10 03:05:52;;;;;;;8.57;1.20;;;12.30;99.90;;;;;;5069760;28;20053;-76
2022/07/10 03:08:18;;;;;;;8.15;1.20;;;12.30;99.90;;;;;;5069020;28;20059;-76
2022/07/10 03:10:44;;;;;;;8.07;1.67;;;12.30;99.90;;;;;;5069066;28;20484;-76
2022/07/10 03:13:10;;;;;;;8.40;1.23;;;12.30;99.90;;;;;;5068846;28;20048;-76
2022/07/10 03:15:35;;;;;;;10.52;2.30;;;12.40;99.90;;;;;;5069597;28;20098;-77
2022/07/10 03:18:01;;;;;;;11.93;2.13;;;12.50;99.90;;;;;;5069624;28;20130;-76
2022/07/10 03:20:27;;;;;;;11.18;1.88;;;12.50;99.90;;;;;;5069454;28;20166;-77
2022/07/10 03:22:53;;;;;;;11.57;1.33;;;12.50;99.90;;;;;;5067710;28;20135;-76
2022/07/10 03:25:19;;;;;;;10.63;1.85;;;12.60;99.90;;;;;;5069420;28;20051;-76
2022/07/10 03:27:45;;;;;;;5.60;1.30;;;12.60;99.90;;;;;;5070579;28;20044;-75
2022/07/10 03:30:11;;;;;;;6.82;1.55;;;13.10;99.90;;;;;;5073473;28;20059;-76
2022/07/10 03:32:37;;;;;;;10.68;1.20;;;12.80;99.90;;;;;;5073323;28;20041;-77
2022/07/10 03:35:03;;;;;;;11.30;1.30;;;13.30;99.90;;;;;;5090459;28;20055;-76
2022/07/10 03:37:28;;;;;;;10.40;1.17;;;12.90;99.90;;;;;;5090120;28;20512;-76
2022/07/10 03:39:54;;;;;;;11.43;1.10;;;12.90;99.90;;;;;;5073194;28;20045;-75
2022/07/10 03:42:20;;;;;;;8.45;1.20;;;13.00;99.90;;;;;;5072971;28;20048;-76
2022/07/10 03:44:46;;;;;;;8.25;1.40;;;13.10;99.90;;;;;;5072021;28;20114;-77
2022/07/10 03:47:12;;;;;;;11.75;1.83;;;13.20;99.90;;;;;;5072965;28;20098;-76
2022/07/10 03:49:41;;;;;;;11.65;1.98;;;13.20;99.90;;;;;;5072844;28;20113;-77
2022/07/10 03:52:08;;;;;;;12.25;1.27;;;13.20;99.90;;;;;;5072702;28;20051;-78
2022/07/10 03:54:34;;;;;;;21.58;1.38;;;13.30;99.90;;;;;;5070909;28;20136;-76
2022/07/10 03:59:44;;;;;;;8.87;1.23;;;13.40;99.90;;;;;;5072277;28;20056;-77
2022/07/10 04:02:10;;;;;;;13.90;1.40;;;13.40;99.90;;;;;;5072504;28;20294;-76
2022/07/10 04:04:35;;;;;;;11.27;1.38;;;13.60;99.90;;;;;;5071848;28;20040;-77
2022/07/10 04:07:01;;;;;;;11.48;1.42;;;13.50;99.90;;;;;;5071435;28;20056;-77
2022/07/10 04:09:27;;;;;;;9.82;2.58;;;13.50;99.90;;;;;;5071857;28;20048;-78
2022/07/10 04:11:52;;;;;;;9.15;1.70;;;13.60;99.90;;;;;;5072720;28;20055;-76
2022/07/10 04:14:18;;;;;;;14.18;1.80;;;13.70;99.90;;;;;;5070581;28;20044;-74
2022/07/10 04:16:44;;;;;;;10.13;1.40;;;13.70;99.90;;;;;;5072204;28;20412;-76
2022/07/10 04:19:10;;;;;;;12.00;1.60;;;13.70;99.90;;;;;;5072393;28;20531;-77
2022/07/10 04:21:36;;;;;;;9.82;1.85;;;13.80;99.90;;;;;;5072341;28;20573;-77
2022/07/10 04:24:03;;;;;;;12.38;1.60;;;13.80;99.90;;;;;;5071990;28;20059;-77
2022/07/10 04:26:28;;;;;;;8.82;1.42;;;13.90;99.90;;;;;;5070515;28;20545;-76
2022/07/10 04:28:54;;;;;;;8.20;1.35;;;13.90;99.90;;;;;;5072746;28;20048;-77
2022/07/10 04:31:21;;;;;;;6.78;1.23;;;13.90;99.90;;;;;;5071919;28;20579;-76
2022/07/10 04:33:46;;;;;;;10.65;1.70;;;14.00;99.90;;;;;;5072014;28;20446;-77
2022/07/10 04:36:12;;;;;;;9.93;1.75;;;14.00;99.90;;;;;;5070073;28;20033;-77
2022/07/10 04:38:37;;;;;;;13.60;1.83;;;14.10;99.90;;;;;;5070611;28;20078;-78
2022/07/10 04:41:03;;;;;;;12.27;1.48;;;14.10;99.90;;;;;;5071737;28;20044;-78
2022/07/10 04:43:30;;;;;;;9.77;1.60;;;14.10;99.90;;;;;;5071891;28;20033;-77
2022/07/10 04:45:56;;;;;;;11.73;2.08;;;14.20;99.90;;;;;;5071055;28;20067;-78
2022/07/10 04:48:22;;;;;;;9.27;1.65;;;14.20;99.90;;;;;;5071568;28;20044;-78
2022/07/10 04:50:48;;;;;;;14.90;2.13;;;14.20;99.90;;;;;;5071712;28;20131;-78
2022/07/10 04:53:14;;;;;;;14.02;1.88;;;14.30;99.90;;;;;;5071506;28;20044;-78
2022/07/10 04:55:39;;;;;;;9.43;1.25;;;14.40;99.90;;;;;;5071817;28;20479;-78
2022/07/10 04:58:05;;;;;;;13.82;2.05;;;14.30;99.90;;;;;;5071416;28;20446;-78
2022/07/10 05:00:31;;;;;;;10.80;1.77;;;14.30;99.90;;;;;;5071617;28;20129;-77
2022/07/10 05:02:57;;;;;;;11.23;1.63;;;14.40;99.90;;;;;;5070843;28;20037;-77
2022/07/10 05:05:22;;;;;;;9.65;1.52;;;14.40;99.90;;;;;;5070190;28;20181;-76
2022/07/10 05:07:48;;;;;;;11.10;2.33;;;14.40;99.90;;;;;;5070879;28;20123;-76
2022/07/10 05:10:14;;;;;;;12.07;1.90;;;14.40;99.90;;;;;;5070574;28;20048;-77
2022/07/10 05:12:39;;;;;;;12.32;1.90;;;14.50;99.90;;;;;;5071108;28;20040;-75
2022/07/10 05:15:06;;;;;;;12.35;1.58;;;14.50;99.90;;;;;;5070860;28;20044;-79
2022/07/10 05:17:31;;;;;;;13.48;1.95;;;14.50;99.90;;;;;;5068875;28;20059;-77
2022/07/10 05:19:57;;;;;;;14.73;1.67;;;14.50;99.90;;;;;;5070663;28;20384;-76
2022/07/10 05:22:24;;;;;;;9.05;1.63;;;14.50;99.90;;;;;;5069260;28;20049;-75
2022/07/10 05:24:50;;;;;;;10.98;1.70;;;14.60;99.90;;;;;;5069230;28;20113;-78
2022/07/10 05:27:19;;;;;;;12.35;1.70;;;14.60;99.90;;;;;;5069184;28;20835;-77
2022/07/10 05:29:46;;;;;;;9.32;1.75;;;14.60;99.90;;;;;;5070433;28;20048;-78
2022/07/10 05:32:11;;;;;;;10.43;1.65;;;14.70;99.90;;;;;;5070335;28;20040;-78
2022/07/10 05:34:37;;;;;;;14.30;1.58;;;14.70;99.90;;;;;;5068831;28;20520;-76
2022/07/10 05:37:03;;;;;;;9.85;1.73;;;14.70;99.90;;;;;;5069030;28;20110;-77
2022/07/10 05:39:29;;;;;;;8.98;1.63;;;14.80;99.90;;;;;;5068801;28;20044;-78
2022/07/10 05:41:55;;;;;;;9.63;1.40;;;14.80;99.90;;;;;;5069133;28;20040;-78
2022/07/10 05:44:21;;;;;;;10.88;1.40;;;14.80;99.90;;;;;;5070117;28;20399;-75
2022/07/10 05:46:47;;;;;;;6.43;1.20;;;15.10;99.90;;;;;;5070241;28;20060;-76
2022/07/10 05:49:12;;;;;;;16.17;1.92;;;14.80;99.90;;;;;;5069452;28;20040;-78
2022/07/10 05:51:38;;;;;;;7.18;1.20;;;14.80;99.90;;;;;;5068824;28;20063;-76
2022/07/10 05:54:04;;;;;;;8.57;1.50;;;14.80;99.90;;;;;;5070120;28;20844;-78
2022/07/10 05:56:30;;;;;;;8.77;1.20;;;14.90;99.90;;;;;;5069734;28;20721;-78
2022/07/10 05:58:56;;;;;;;14.18;1.45;;;15.10;99.90;;;;;;5069196;28;20051;-77
2022/07/10 06:01:22;;;;;;;9.88;1.27;;;15.00;99.90;;;;;;5070090;28;20036;-76
2022/07/10 06:03:48;;;;;;;11.27;1.25;;;15.00;99.90;;;;;;5069245;28;20147;-77
2022/07/10 06:06:15;;;;;;;8.25;1.40;;;15.10;99.90;;;;;;5070008;28;20133;-77
2022/07/10 06:08:42;;;;;;;9.48;1.33;;;15.10;99.90;;;;;;5068258;28;20048;-76
2022/07/10 06:11:07;;;;;;;11.73;1.52;;;15.20;99.90;;;;;;5069307;28;20087;-77
2022/07/10 06:13:33;;;;;;;10.38;1.20;;;15.00;99.90;;;;;;5069721;28;20068;-74
2022/07/10 06:15:58;;;;;;;6.93;1.58;;;15.00;99.90;;;;;;5069932;28;20052;-76
2022/07/10 06:18:24;;;;;;;8.77;1.50;;;15.10;99.90;;;;;;5068366;28;20123;-77
2022/07/10 06:20:50;;;;;;;7.85;1.08;;;15.10;99.90;;;;;;5069305;28;20439;-77
2022/07/10 06:23:15;;;;;;;8.18;1.17;;;15.20;99.90;;;;;;5069920;28;20072;-76
2022/07/10 06:25:41;;;;;;;4.50;1.00;;;15.20;99.90;;;;;;5067971;28;20051;-75
2022/07/10 06:28:06;;;;;;;6.53;1.35;;;15.30;99.90;;;;;;5069746;28;20493;-75
2022/07/10 06:30:32;;;;;;;4.72;0.93;;;15.40;99.90;;;;;;5069609;28;20046;-76
2022/07/10 06:32:58;;;;;;;4.40;0.75;;;15.40;99.90;;;;;;5069255;28;20040;-77
2022/07/10 06:35:23;;;;;;;4.60;0.80;;;15.40;99.90;;;;;;5068264;28;20044;-77
2022/07/10 06:37:49;;;;;;;6.63;1.10;;;15.50;99.90;;;;;;5068244;28;20091;-76
2022/07/10 06:40:15;;;;;;;7.50;1.13;;;15.50;99.90;;;;;;5069113;28;20037;-76
2022/07/10 06:42:41;;;;;;;3.92;0.80;;;15.60;99.90;;;;;;5069478;28;20922;-76
2022/07/10 06:45:07;;;;;;;5.90;1.25;;;15.70;99.90;;;;;;5069218;28;20048;-76
2022/07/10 06:50:17;;;;;;;4.05;0.73;;;16.00;99.90;;;;;;5067775;28;20136;-77
2022/07/10 06:52:43;;;;;;;6.20;1.00;;;16.10;99.90;;;;;;5069431;28;20048;-78
2022/07/10 06:55:09;;;;;;;6.15;1.30;;;16.20;99.90;;;;;;5069828;28;20513;-79
2022/07/10 06:57:35;;;;;;;5.13;0.88;;;16.40;99.90;;;;;;5069475;28;20074;-78
2022/07/10 07:00:01;;;;;;;8.45;1.17;;;16.20;99.90;;;;;;5069430;28;20098;-78
2022/07/10 07:02:27;;;;;;;5.30;0.80;;;16.10;99.90;;;;;;5093270;28;20105;-77
2022/07/10 07:04:53;;;;;;;6.93;0.90;;;16.10;99.90;;;;;;5086316;28;20509;-79
2022/07/10 07:07:18;;;;;;;5.38;1.00;;;16.00;99.90;;;;;;5072363;28;20052;-75
2022/07/10 07:09:44;;;;;;;6.43;1.10;;;16.10;99.90;;;;;;5072682;28;20403;-78
2022/07/10 07:12:10;;;;;;;4.40;0.82;;;15.90;99.90;;;;;;5071857;28;20048;-77
2022/07/10 07:14:36;;;;;;;5.63;0.98;;;16.00;99.90;;;;;;5073249;28;20126;-77
2022/07/10 07:17:06;;;;;;;4.57;0.70;;;16.00;99.90;;;;;;5072878;28;20032;-75
2022/07/10 07:23:09;;;;;;;5.95;0.90;;;16.00;99.90;;;;;;5081076;28;20040;-78
2022/07/10 07:25:10;;;;;;;10.48;1.35;;;16.10;99.90;;;;;;5107649;27;20496;-78
2022/07/10 07:27:38;;;;;;;7.63;1.38;;;16.10;99.90;;;;;;5072895;28;20092;-77
2022/07/10 07:30:14;;;;;;;6.57;0.90;;;16.20;99.90;;;;;;5071516;28;20143;-78
2022/07/10 07:32:41;;;;;;;5.70;0.80;;;16.20;99.90;;;;;;5066423;28;20094;-76
2022/07/10 07:35:08;;;;;;;6.10;0.88;;;16.30;99.90;;;;;;5071737;28;20487;-78
2022/07/10 07:37:50;;;;;;;6.40;0.80;;;16.30;99.90;;;;;;5072333;28;20044;-77
2022/07/10 07:40:20;;;;;;;13.27;2.05;;;16.30;99.90;;;;;;5072763;28;20058;-77
2022/07/10 07:42:46;;;;;;;6.55;0.90;;;16.40;99.90;;;;;;5066601;28;20053;-75
2022/07/10 07:45:12;;;;;;;8.95;1.15;;;16.40;99.90;;;;;;5072171;28;20101;-79
2022/07/10 07:47:44;;;;;;;7.35;1.20;;;16.40;99.90;;;;;;5072365;28;20048;-77
2022/07/10 07:50:11;;;;;;;4.80;0.85;;;16.50;99.90;;;;;;5071194;28;20061;-76
2022/07/10 07:52:36;;;;;;;8.80;1.35;;;16.50;99.90;;;;;;5070763;28;20471;-76
2022/07/10 07:55:02;;;;;;;5.93;0.80;;;16.40;99.90;;;;;;5072036;28;20151;-77
2022/07/10 07:57:28;;;;;;;5.75;1.13;;;16.30;99.90;;;;;;5070902;28;20123;-77
2022/07/10 07:59:53;;;;;;;5.32;1.27;;;16.40;99.90;;;;;;5080256;28;20100;-77
2022/07/10 08:02:19;;;;;;;5.38;1.13;;;16.30;99.90;;;;;;5088419;28;20040;-78
2022/07/10 08:04:45;;;;;;;6.03;0.80;;;16.30;99.90;;;;;;5091832;28;20124;-78
2022/07/10 08:07:10;;;;;;;6.85;1.00;;;16.30;99.90;;;;;;5081224;28;20044;-77
2022/07/10 08:09:36;;;;;;;4.57;1.05;;;16.30;99.90;;;;;;5078469;28;20056;-79
2022/07/10 08:12:02;;;;;;;4.65;0.80;;;16.20;99.90;;;;;;5091657;28;20414;-77
2022/07/10 08:14:31;;;;;;;6.25;1.10;;;16.20;99.90;;;;;;5089440;28;20079;-75
2022/07/10 08:16:56;;;;;;;4.82;0.80;;;16.20;99.90;;;;;;5077217;28;20044;-79
2022/07/10 08:19:22;;;;;;;8.32;1.02;;;16.20;99.90;;;;;;5092734;28;20040;-75
2022/07/10 08:21:51;;;;;;;7.93;1.17;;;16.30;99.90;;;;;;5085610;28;20198;-78
2022/07/10 08:24:17;;;;;;;14.93;1.27;;;16.30;99.90;;;;;;5071791;28;20045;-78
2022/07/10 08:26:43;;;;;;;6.55;1.70;;;16.30;99.90;;;;;;5071849;28;20041;-77
2022/07/10 08:29:09;;;;;;;6.38;1.30;;;16.20;99.90;;;;;;5079982;28;20044;-75
2022/07/10 08:31:35;;;;;;;17.58;1.67;;;16.10;99.90;;;;;;5092221;28;20109;-76
2022/07/10 08:34:01;;;;;;;8.60;1.25;;;16.00;99.90;;;;;;5077697;28;20052;-77
2022/07/10 08:36:26;;;;;;;14.55;1.48;;;16.00;99.90;;;;;;5072917;28;20040;-75
2022/07/10 08:38:54;;;;;;;7.85;1.48;;;15.80;99.90;;;;;;5072775;28;20059;-76
2022/07/10 08:41:45;;;;;;;5.65;0.98;;;15.70;99.90;;;;;;5072343;28;20056;-74
2022/07/10 08:44:12;;;;;;;13.60;1.83;;;15.70;99.90;;;;;;5068126;28;20075;-77
2022/07/10 08:46:38;;;;;;;7.45;1.30;;;15.60;99.90;;;;;;5080650;28;20141;-77
2022/07/10 08:49:10;;;;;;;7.03;1.20;;;15.50;99.90;;;;;;5093000;28;20044;-78
2022/07/10 08:51:40;;;;;;;5.40;1.55;;;15.60;99.90;;;;;;5076622;28;20045;-77
2022/07/10 08:54:08;;;;;;;4.80;1.23;;;15.60;99.90;;;;;;5072289;28;20498;-76
2022/07/10 08:56:34;;;;;;;4.97;1.30;;;15.70;99.90;;;;;;5071839;28;20059;-76
2022/07/10 08:59:04;;;;;;;5.40;1.15;;;15.70;99.90;;;;;;5071770;28;20539;-79
2022/07/10 09:01:30;;;;;;;5.95;1.30;;;15.60;99.90;;;;;;5072404;28;20169;-80
2022/07/10 09:03:56;;;;;;;5.55;1.40;;;15.60;99.90;;;;;;5085408;28;20126;-80
2022/07/10 09:06:21;;;;;;;6.47;1.15;;;15.60;99.90;;;;;;5087850;28;20550;-77
2022/07/10 09:09:08;;;;;;;6.72;1.20;;;15.70;99.90;;;;;;5092494;28;20036;-77
2022/07/10 09:11:34;;;;;;;9.63;1.60;;;15.60;99.90;;;;;;5079308;28;20051;-75
2022/07/10 09:14:04;;;;;;;6.82;1.40;;;15.70;99.90;;;;;;5071372;28;20052;-80
2022/07/10 09:16:30;;;;;;;5.32;1.10;;;15.70;99.90;;;;;;5088266;28;20537;-78
2022/07/10 09:18:57;;;;;;;7.63;1.13;;;15.80;99.90;;;;;;5089156;28;20041;-79
2022/07/10 09:21:23;;;;;;;8.40;1.75;;;16.10;99.90;;;;;;5071916;28;20044;-76
2022/07/10 09:23:49;;;;;;;7.00;1.52;;;15.90;99.90;;;;;;5071096;28;20044;-78
2022/07/10 09:26:15;;;;;;;7.13;2.05;;;16.20;99.90;;;;;;5070888;28;20162;-79
2022/07/10 09:28:41;;;;;;;8.30;1.45;;;15.90;99.90;;;;;;5071590;28;20044;-77
2022/07/10 09:31:07;;;;;;;6.95;1.58;;;15.90;99.90;;;;;;5070621;28;20048;-78
2022/07/10 09:33:34;;;;;;;6.32;1.67;;;16.40;99.90;;;;;;5084420;28;20067;-79
2022/07/10 09:36:10;;;;;;;7.15;1.65;;;15.90;99.90;;;;;;5081839;28;20044;-77
2022/07/10 09:38:46;;;;;;;7.53;1.77;;;15.90;99.90;;;;;;5082444;28;20414;-77
2022/07/10 09:41:15;;;;;;;36.03;2.35;;;16.00;99.90;;;;;;5091782;28;20684;-75
2022/07/10 09:43:49;;;;;;;6.88;2.00;;;16.00;99.90;;;;;;5091298;28;20052;-78
2022/07/10 09:46:16;;;;;;;5.18;1.55;;;16.20;99.90;;;;;;5078142;28;20049;-78
2022/07/10 09:48:42;;;;;;;6.60;1.52;;;16.10;99.90;;;;;;5069603;28;20052;-76
2022/07/10 09:51:10;;;;;;;5.05;1.40;;;16.20;99.90;;;;;;5070876;28;20410;-77
2022/07/10 09:53:42;;;;;;;6.85;1.42;;;16.10;99.90;;;;;;5071003;28;20400;-79
2022/07/10 09:56:12;;;;;;;6.07;1.50;;;16.20;99.90;;;;;;5070278;28;20394;-79
2022/07/10 09:58:39;;;;;;;5.20;1.65;;;16.20;99.90;;;;;;5070664;28;20055;-75
2022/07/10 10:01:08;;;;;;;5.28;1.70;;;16.30;99.90;;;;;;5071186;28;20120;-77
2022/07/10 10:03:40;;;;;;;8.93;1.48;;;16.30;99.90;;;;;;5070814;28;20076;-77
2022/07/10 10:06:15;;;;;;;8.43;1.63;;;16.40;99.90;;;;;;5069047;28;20055;-79
2022/07/10 10:09:08;;;;;;;6.90;1.67;;;16.50;99.90;;;;;;5069495;28;20048;-75
2022/07/10 10:11:36;;;;;;;10.52;2.10;;;16.50;99.90;;;;;;5071286;28;20055;-77
2022/07/10 10:14:35;;;;;;;7.47;1.80;;;16.40;99.90;;;;;;5070624;28;20060;-81
2022/07/10 10:17:03;;;;;;;9.98;2.00;;;16.50;99.90;;;;;;5028523;28;20574;-82
2022/07/10 10:22:18;;;;;;;9.85;2.17;;;16.60;99.90;;;;;;5028144;28;20124;-77
2022/07/10 10:24:45;;;;;;;8.52;1.88;;;16.60;99.90;;;;;;5027973;28;20060;-78
2022/07/10 10:27:33;;;;;;;8.50;1.55;;;16.80;99.90;;;;;;5028668;28;20053;-81
2022/07/10 10:30:00;;;;;;;6.72;1.80;;;17.00;99.90;;;;;;5031142;28;20045;-82
2022/07/10 10:32:28;;;;;;;7.07;1.73;;;17.10;99.90;;;;;;5048371;28;20080;-78
2022/07/10 10:34:57;;;;;;;10.40;1.90;;;17.20;99.90;;;;;;5047867;28;20049;-81
2022/07/10 10:37:40;;;;;;;12.43;1.83;;;17.40;99.90;;;;;;5047746;28;20053;-79
2022/07/10 10:40:08;;;;;;;6.95;1.50;;;17.70;99.90;;;;;;5048071;28;20457;-79
2022/07/10 10:42:46;;;;;;;9.20;1.65;;;17.70;99.90;;;;;;5012050;28;20064;-79
2022/07/10 10:45:35;;;;;;;8.88;1.95;;;17.90;99.90;;;;;;5010606;28;20061;-80
2022/07/10 10:48:08;;;;;;;7.05;1.65;;;18.10;99.90;;;;;;5050281;28;20088;-83
2022/07/10 10:55:01;;;;;;;12.73;1.85;;;18.10;99.90;;;;;;5792281;23;20640;-74
2022/07/10 10:57:39;;;;;;;10.05;1.63;;;18.10;99.90;;;;;;5028531;28;20053;-83
2022/07/10 11:00:07;;;;;;;7.30;1.15;;;18.50;99.90;;;;;;5029665;28;20048;-78
2022/07/10 11:02:34;;;;;;;6.75;1.67;;;18.10;99.90;;;;;;5030347;28;20103;-79
2022/07/10 11:05:13;;;;;;;7.95;2.17;;;18.10;99.90;;;;;;5029844;28;20046;-80
2022/07/10 11:07:59;;;;;;;5.40;1.25;;;18.00;99.90;;;;;;5029073;28;20053;-82
2022/07/10 11:10:36;;;;;;;6.95;1.45;;;18.10;99.90;;;;;;5029860;28;20034;-81
2022/07/10 11:13:13;;;;;;;6.85;1.02;;;18.20;99.90;;;;;;5030319;28;20053;-77
2022/07/10 11:15:42;;;;;;;13.18;1.60;;;18.10;99.90;;;;;;5029774;28;20377;-82
2022/07/10 11:18:13;;;;;;;6.97;1.40;;;18.10;99.90;;;;;;5013414;28;20046;-78
2022/07/10 11:20:49;;;;;;;3.65;1.15;;;18.00;99.90;;;;;;5032670;28;20060;-84
2022/07/10 11:23:30;;;;;;;4.30;1.15;;;17.70;99.90;;;;;;5047659;28;20033;-79
2022/07/10 11:26:11;;;;;;;10.02;1.48;;;17.70;99.90;;;;;;5049964;28;20044;-85
2022/07/10 11:28:55;;;;;;;8.88;1.35;;;17.50;99.90;;;;;;5050393;28;20041;-81
2022/07/10 11:31:23;;;;;;;5.40;1.10;;;17.50;99.90;;;;;;5049831;28;20053;-76
2022/07/10 11:33:51;;;;;;;5.22;1.10;;;17.70;99.90;;;;;;5049844;28;20439;-80
2022/07/10 11:36:21;;;;;;;10.15;1.48;;;17.70;99.90;;;;;;5032022;28;20041;-81
2022/07/10 11:38:48;;;;;;;6.20;1.30;;;17.60;99.90;;;;;;5029770;28;20501;-79
2022/07/10 11:41:23;;;;;;;2.97;1.17;;;17.60;99.90;;;;;;5029932;28;20069;-81
2022/07/10 11:43:54;;;;;;;4.85;1.20;;;17.40;99.90;;;;;;5028553;28;20088;-81
2022/07/10 11:46:21;;;;;;;6.55;1.30;;;17.30;99.90;;;;;;5028752;28;20061;-79
2022/07/10 11:48:53;;;;;;;8.07;1.90;;;17.30;99.90;;;;;;5030319;28;20045;-81
2022/07/10 11:51:27;;;;;;;5.72;1.27;;;17.10;99.90;;;;;;5032149;28;20120;-78
2022/07/10 11:54:11;;;;;;;6.78;1.45;;;17.10;99.90;;;;;;5033386;28;20041;-81
2022/07/10 11:56:41;;;;;;;7.65;1.50;;;17.00;99.90;;;;;;5039043;28;20385;-78
2022/07/10 11:59:11;;;;;;;10.48;1.85;;;16.80;99.90;;;;;;5012165;28;20133;-82
2022/07/10 12:01:51;;;;;;;10.10;1.70;;;16.60;99.90;;;;;;5022873;28;20041;-80
2022/07/10 12:04:19;;;;;;;7.55;1.98;;;16.60;99.90;;;;;;5031278;28;20068;-82
2022/07/10 12:06:58;;;;;;;10.15;1.90;;;16.60;99.90;;;;;;5031612;28;20057;-80
2022/07/10 12:09:24;;;;;;;11.23;1.70;;;16.50;99.90;;;;;;5031770;28;20049;-78
2022/07/10 12:12:05;;;;;;;6.43;1.30;;;16.50;99.90;;;;;;5031497;28;20053;-83
2022/07/10 12:14:31;;;;;;;6.63;1.95;;;16.60;99.90;;;;;;5031874;28;20088;-82
2022/07/10 12:16:57;;;;;;;12.02;2.10;;;16.70;99.90;;;;;;5032945;28;20049;-80
2022/07/10 12:19:25;;;;;;;6.75;1.90;;;16.90;99.90;;;;;;5033438;28;20046;-82
2022/07/10 12:21:51;;;;;;;6.32;1.70;;;16.90;99.90;;;;;;5053348;28;20095;-86
2022/07/10 12:24:21;;;;;;;6.70;1.67;;;17.00;99.90;;;;;;5052835;28;20041;-83
2022/07/10 12:26:48;;;;;;;6.15;1.50;;;17.00;99.90;;;;;;5052885;28;20083;-82
2022/07/10 12:29:21;;;;;;;11.07;1.58;;;17.00;99.90;;;;;;5052679;28;20045;-81
2022/07/10 12:31:49;;;;;;;10.18;1.67;;;17.00;99.90;;;;;;5052963;28;20052;-82
2022/07/10 12:34:16;;;;;;;6.20;1.30;;;16.90;99.90;;;;;;5040421;28;20427;-83
2022/07/10 12:36:51;;;;;;;7.90;2.08;;;16.80;99.90;;;;;;5032716;28;20053;-81
2022/07/10 12:39:20;;;;;;;8.88;1.33;;;16.80;99.90;;;;;;5032581;28;20045;-82
2022/07/10 12:41:58;;;;;;;6.20;1.63;;;16.70;99.90;;;;;;5014691;28;20128;-86
2022/07/10 12:44:31;;;;;;;9.30;1.45;;;16.70;99.90;;;;;;5030955;28;20052;-82
2022/07/10 12:47:08;;;;;;;6.28;1.70;;;16.80;99.90;;;;;;5032301;28;20037;-83
2022/07/10 12:49:55;;;;;;;7.63;1.40;;;16.70;99.90;;;;;;5032473;28;20045;-84
2022/07/10 12:52:21;;;;;;;5.72;1.27;;;16.70;99.90;;;;;;5032594;28;20056;-82
2022/07/10 12:54:47;;;;;;;4.03;1.10;;;16.70;99.90;;;;;;5031473;28;20061;-83
2022/07/10 12:57:12;;;;;;;4.97;1.15;;;16.70;99.90;;;;;;5032704;28;20056;-83
2022/07/10 12:59:38;;;;;;;5.00;1.17;;;16.60;99.90;;;;;;5032143;28;20482;-78
2022/07/10 13:02:22;;;;;;;3.15;1.30;;;16.70;99.90;;;;;;5032489;28;20087;-81